Etusivu
METAR-TAF:

METAR-TAF

Lentoasemat :

Omak Airport

Omak, Washington, Yhdysvallat

Leveyspiiri: 48-27-51N, Pituuspiiri: 119-31-05W, korkeus merenpinnasta: 397 m

Tämänhetkinen sää

Tämä raportti tehtiin 24 minuuttia sitten, kello 17.53 UTC
Tuuli 3 kn pohjoisesta
Lämpötila 3°C
Kosteus 75%
Ilmanpaine 1025 hPa
Näkyvyys: 16.1 km
Pilvistä 1400 ft:n korkeudessa

METAR: KOMK 131753Z AUTO 35003KT 10SM OVC014 03/M01 A3026 RMK AO2 SLP262 T00331011 10033 21022 51010

Aika: 10:17 (18:17 UTC)


TAF: puuttuu

Säähavainnot ja -ennusteet yli 4000 lentoasemalta (METAR- ja TAF-raportit).

Käytössä olevat sääasemat on merkitty karttaan keltaisilla ja punaisilla pisteillä.

Aseta hiiri pisteen päälle nähdäksesi sääaseman nimen.

Klikkaa sitten nähdäksesi säähavainnot ja -ennusteet.

Kartan vaihtaminen: klikkaa mustalla rastilla varustettuja vihreitä pisteitä, niin voit zoomata sisään; viivalla varustettua vihreää pistettä, niin voit zoomata ulos tai vihreitä nuolia, niin pääset viereisille kartoille.


METAR-TAF: